sensor_id;sensor_type;location;lat;lon;timestamp;P1;durP1;ratioP1;P2;durP2;ratioP2
72406;SDS011;60396;47.550;18.828;2023-09-19T00:01:08;17.57;;;5.67;;
72406;SDS011;60396;47.550;18.828;2023-09-19T00:03:37;18.58;;;5.78;;
72406;SDS011;60396;47.550;18.828;2023-09-19T00:06:05;13.48;;;5.80;;
72406;SDS011;60396;47.550;18.828;2023-09-19T00:08:35;15.98;;;5.82;;
72406;SDS011;60396;47.550;18.828;2023-09-19T00:11:03;14.05;;;5.43;;
72406;SDS011;60396;47.550;18.828;2023-09-19T00:13:32;14.30;;;5.87;;
72406;SDS011;60396;47.550;18.828;2023-09-19T00:16:01;11.80;;;5.85;;
72406;SDS011;60396;47.550;18.828;2023-09-19T00:18:29;14.70;;;5.87;;
72406;SDS011;60396;47.550;18.828;2023-09-19T00:21:00;19.20;;;6.55;;
72406;SDS011;60396;47.550;18.828;2023-09-19T00:23:27;14.95;;;5.55;;
72406;SDS011;60396;47.550;18.828;2023-09-19T00:25:58;18.33;;;6.10;;
72406;SDS011;60396;47.550;18.828;2023-09-19T00:28:31;11.63;;;5.40;;
72406;SDS011;60396;47.550;18.828;2023-09-19T00:30:59;21.65;;;5.70;;
72406;SDS011;60396;47.550;18.828;2023-09-19T00:33:31;15.77;;;5.75;;
72406;SDS011;60396;47.550;18.828;2023-09-19T00:35:59;15.73;;;5.68;;
72406;SDS011;60396;47.550;18.828;2023-09-19T00:38:31;15.33;;;5.90;;
72406;SDS011;60396;47.550;18.828;2023-09-19T00:40:59;18.65;;;5.57;;
72406;SDS011;60396;47.550;18.828;2023-09-19T00:43:27;16.87;;;5.90;;
72406;SDS011;60396;47.550;18.828;2023-09-19T00:45:55;15.25;;;6.20;;
72406;SDS011;60396;47.550;18.828;2023-09-19T00:48:24;14.57;;;6.28;;
72406;SDS011;60396;47.550;18.828;2023-09-19T00:50:54;12.47;;;6.50;;
72406;SDS011;60396;47.550;18.828;2023-09-19T00:53:23;13.20;;;6.47;;
72406;SDS011;60396;47.550;18.828;2023-09-19T00:55:54;15.15;;;5.82;;
72406;SDS011;60396;47.550;18.828;2023-09-19T00:58:23;16.90;;;6.43;;
72406;SDS011;60396;47.550;18.828;2023-09-19T01:00:51;13.75;;;5.80;;
72406;SDS011;60396;47.550;18.828;2023-09-19T01:03:21;18.10;;;6.00;;
72406;SDS011;60396;47.550;18.828;2023-09-19T01:05:50;14.18;;;6.00;;
72406;SDS011;60396;47.550;18.828;2023-09-19T01:08:19;14.85;;;5.85;;
72406;SDS011;60396;47.550;18.828;2023-09-19T01:10:55;14.55;;;6.70;;
72406;SDS011;60396;47.550;18.828;2023-09-19T01:16:28;14.37;;;6.23;;
72406;SDS011;60396;47.550;18.828;2023-09-19T01:19:10;14.77;;;6.22;;
72406;SDS011;60396;47.550;18.828;2023-09-19T01:24:33;18.85;;;6.50;;
72406;SDS011;60396;47.550;18.828;2023-09-19T01:29:48;17.87;;;7.13;;
72406;SDS011;60396;47.550;18.828;2023-09-19T01:32:17;21.75;;;7.32;;
72406;SDS011;60396;47.550;18.828;2023-09-19T01:34:52;18.48;;;6.50;;
72406;SDS011;60396;47.550;18.828;2023-09-19T01:37:26;19.50;;;6.45;;
72406;SDS011;60396;47.550;18.828;2023-09-19T01:39:59;20.15;;;6.62;;
72406;SDS011;60396;47.550;18.828;2023-09-19T01:47:45;17.80;;;6.95;;
72406;SDS011;60396;47.550;18.828;2023-09-19T01:52:47;16.30;;;6.47;;
72406;SDS011;60396;47.550;18.828;2023-09-19T01:55:17;18.27;;;7.20;;
72406;SDS011;60396;47.550;18.828;2023-09-19T01:57:51;15.43;;;6.43;;
72406;SDS011;60396;47.550;18.828;2023-09-19T02:00:27;12.23;;;6.70;;
72406;SDS011;60396;47.550;18.828;2023-09-19T02:02:57;18.58;;;7.03;;
72406;SDS011;60396;47.550;18.828;2023-09-19T02:05:26;15.43;;;6.47;;
72406;SDS011;60396;47.550;18.828;2023-09-19T02:07:57;17.33;;;6.73;;
72406;SDS011;60396;47.550;18.828;2023-09-19T02:10:26;16.87;;;6.70;;
72406;SDS011;60396;47.550;18.828;2023-09-19T02:12:54;17.73;;;7.18;;
72406;SDS011;60396;47.550;18.828;2023-09-19T02:15:22;15.38;;;6.97;;
72406;SDS011;60396;47.550;18.828;2023-09-19T02:17:50;19.02;;;6.82;;
72406;SDS011;60396;47.550;18.828;2023-09-19T02:20:17;16.00;;;6.53;;
72406;SDS011;60396;47.550;18.828;2023-09-19T02:22:48;12.05;;;6.32;;
72406;SDS011;60396;47.550;18.828;2023-09-19T02:25:17;14.75;;;6.40;;
72406;SDS011;60396;47.550;18.828;2023-09-19T02:27:45;15.98;;;7.05;;
72406;SDS011;60396;47.550;18.828;2023-09-19T02:30:13;17.87;;;7.68;;
72406;SDS011;60396;47.550;18.828;2023-09-19T02:32:43;14.73;;;6.50;;
72406;SDS011;60396;47.550;18.828;2023-09-19T02:35:10;15.90;;;6.47;;
72406;SDS011;60396;47.550;18.828;2023-09-19T02:37:39;18.27;;;7.35;;
72406;SDS011;60396;47.550;18.828;2023-09-19T02:40:07;16.80;;;6.80;;
72406;SDS011;60396;47.550;18.828;2023-09-19T02:42:47;16.02;;;6.68;;
72406;SDS011;60396;47.550;18.828;2023-09-19T02:45:16;13.33;;;6.50;;
72406;SDS011;60396;47.550;18.828;2023-09-19T02:47:48;14.95;;;6.82;;
72406;SDS011;60396;47.550;18.828;2023-09-19T02:50:16;16.50;;;6.47;;
72406;SDS011;60396;47.550;18.828;2023-09-19T02:52:45;16.70;;;6.87;;
72406;SDS011;60396;47.550;18.828;2023-09-19T02:55:17;17.77;;;6.45;;
72406;SDS011;60396;47.550;18.828;2023-09-19T02:57:53;13.73;;;6.53;;
72406;SDS011;60396;47.550;18.828;2023-09-19T03:00:24;18.12;;;6.80;;
72406;SDS011;60396;47.550;18.828;2023-09-19T03:02:53;21.70;;;6.40;;
72406;SDS011;60396;47.550;18.828;2023-09-19T03:05:22;15.65;;;6.47;;
72406;SDS011;60396;47.550;18.828;2023-09-19T03:07:51;14.30;;;6.68;;
72406;SDS011;60396;47.550;18.828;2023-09-19T03:10:20;17.00;;;6.93;;
72406;SDS011;60396;47.550;18.828;2023-09-19T03:12:48;19.70;;;7.35;;
72406;SDS011;60396;47.550;18.828;2023-09-19T03:15:17;15.52;;;6.78;;
72406;SDS011;60396;47.550;18.828;2023-09-19T03:17:46;18.92;;;6.87;;
72406;SDS011;60396;47.550;18.828;2023-09-19T03:20:15;18.12;;;7.53;;
72406;SDS011;60396;47.550;18.828;2023-09-19T03:22:47;16.33;;;6.80;;
72406;SDS011;60396;47.550;18.828;2023-09-19T03:25:16;15.13;;;7.05;;
72406;SDS011;60396;47.550;18.828;2023-09-19T03:27:45;17.70;;;8.27;;
72406;SDS011;60396;47.550;18.828;2023-09-19T03:30:13;16.92;;;7.50;;
72406;SDS011;60396;47.550;18.828;2023-09-19T03:32:45;18.15;;;6.62;;
72406;SDS011;60396;47.550;18.828;2023-09-19T03:35:14;19.20;;;7.13;;
72406;SDS011;60396;47.550;18.828;2023-09-19T03:37:42;17.67;;;6.12;;
72406;SDS011;60396;47.550;18.828;2023-09-19T03:40:10;14.98;;;5.97;;
72406;SDS011;60396;47.550;18.828;2023-09-19T03:42:39;14.57;;;5.82;;
72406;SDS011;60396;47.550;18.828;2023-09-19T03:45:08;13.62;;;5.60;;
72406;SDS011;60396;47.550;18.828;2023-09-19T03:47:44;15.37;;;5.60;;
72406;SDS011;60396;47.550;18.828;2023-09-19T03:50:15;10.15;;;4.20;;
72406;SDS011;60396;47.550;18.828;2023-09-19T03:52:45;12.93;;;4.00;;
72406;SDS011;60396;47.550;18.828;2023-09-19T03:55:13;8.65;;;3.08;;
72406;SDS011;60396;47.550;18.828;2023-09-19T03:57:41;9.88;;;2.80;;
72406;SDS011;60396;47.550;18.828;2023-09-19T04:00:09;14.50;;;2.23;;
72406;SDS011;60396;47.550;18.828;2023-09-19T04:02:40;7.03;;;1.85;;
72406;SDS011;60396;47.550;18.828;2023-09-19T04:05:08;9.57;;;1.40;;
72406;SDS011;60396;47.550;18.828;2023-09-19T04:07:38;7.95;;;1.70;;
72406;SDS011;60396;47.550;18.828;2023-09-19T04:10:06;6.53;;;1.50;;
72406;SDS011;60396;47.550;18.828;2023-09-19T04:12:36;5.33;;;1.30;;
72406;SDS011;60396;47.550;18.828;2023-09-19T04:15:07;4.95;;;1.20;;
72406;SDS011;60396;47.550;18.828;2023-09-19T04:17:36;7.40;;;0.90;;
72406;SDS011;60396;47.550;18.828;2023-09-19T04:20:04;6.00;;;1.37;;
72406;SDS011;60396;47.550;18.828;2023-09-19T04:22:35;9.82;;;1.17;;
72406;SDS011;60396;47.550;18.828;2023-09-19T04:25:03;4.60;;;0.97;;
72406;SDS011;60396;47.550;18.828;2023-09-19T04:27:31;4.57;;;0.90;;
72406;SDS011;60396;47.550;18.828;2023-09-19T04:29:59;5.40;;;1.10;;
72406;SDS011;60396;47.550;18.828;2023-09-19T04:32:28;4.07;;;0.80;;
72406;SDS011;60396;47.550;18.828;2023-09-19T04:34:56;6.30;;;0.90;;
72406;SDS011;60396;47.550;18.828;2023-09-19T04:37:27;6.37;;;0.70;;
72406;SDS011;60396;47.550;18.828;2023-09-19T04:39:56;3.45;;;0.60;;
72406;SDS011;60396;47.550;18.828;2023-09-19T04:42:23;3.55;;;0.70;;
72406;SDS011;60396;47.550;18.828;2023-09-19T04:44:52;3.62;;;0.85;;
72406;SDS011;60396;47.550;18.828;2023-09-19T04:47:21;7.57;;;0.60;;
72406;SDS011;60396;47.550;18.828;2023-09-19T04:49:49;4.17;;;0.70;;
72406;SDS011;60396;47.550;18.828;2023-09-19T04:52:17;2.87;;;0.68;;
72406;SDS011;60396;47.550;18.828;2023-09-19T04:54:46;3.12;;;0.30;;
72406;SDS011;60396;47.550;18.828;2023-09-19T04:57:15;3.30;;;0.50;;
72406;SDS011;60396;47.550;18.828;2023-09-19T04:59:43;3.20;;;0.60;;
72406;SDS011;60396;47.550;18.828;2023-09-19T05:02:11;3.07;;;0.47;;
72406;SDS011;60396;47.550;18.828;2023-09-19T05:04:39;2.58;;;0.55;;
72406;SDS011;60396;47.550;18.828;2023-09-19T05:07:07;3.12;;;0.70;;
72406;SDS011;60396;47.550;18.828;2023-09-19T05:09:35;3.25;;;0.50;;
72406;SDS011;60396;47.550;18.828;2023-09-19T05:12:04;2.00;;;0.57;;
72406;SDS011;60396;47.550;18.828;2023-09-19T05:14:33;3.30;;;0.40;;
72406;SDS011;60396;47.550;18.828;2023-09-19T05:17:01;2.20;;;0.40;;
72406;SDS011;60396;47.550;18.828;2023-09-19T05:19:30;3.30;;;0.40;;
72406;SDS011;60396;47.550;18.828;2023-09-19T05:21:58;2.67;;;0.60;;
72406;SDS011;60396;47.550;18.828;2023-09-19T05:24:26;2.65;;;0.50;;
72406;SDS011;60396;47.550;18.828;2023-09-19T05:26:53;1.50;;;0.40;;
72406;SDS011;60396;47.550;18.828;2023-09-19T05:29:22;4.57;;;0.45;;
72406;SDS011;60396;47.550;18.828;2023-09-19T05:31:50;5.05;;;0.52;;
72406;SDS011;60396;47.550;18.828;2023-09-19T05:34:18;6.37;;;0.45;;
72406;SDS011;60396;47.550;18.828;2023-09-19T05:36:47;3.25;;;0.68;;
72406;SDS011;60396;47.550;18.828;2023-09-19T05:39:16;2.20;;;0.30;;
72406;SDS011;60396;47.550;18.828;2023-09-19T05:41:44;5.87;;;0.60;;
72406;SDS011;60396;47.550;18.828;2023-09-19T05:44:12;7.93;;;0.73;;
72406;SDS011;60396;47.550;18.828;2023-09-19T05:46:41;2.80;;;0.47;;
72406;SDS011;60396;47.550;18.828;2023-09-19T05:49:09;3.25;;;0.60;;
72406;SDS011;60396;47.550;18.828;2023-09-19T05:51:37;3.27;;;0.47;;
72406;SDS011;60396;47.550;18.828;2023-09-19T05:54:05;4.55;;;0.50;;
72406;SDS011;60396;47.550;18.828;2023-09-19T05:56:32;2.28;;;0.35;;
72406;SDS011;60396;47.550;18.828;2023-09-19T05:59:00;5.47;;;0.50;;
72406;SDS011;60396;47.550;18.828;2023-09-19T06:01:28;3.17;;;0.73;;
72406;SDS011;60396;47.550;18.828;2023-09-19T06:03:56;5.47;;;0.60;;
72406;SDS011;60396;47.550;18.828;2023-09-19T06:06:24;3.00;;;0.47;;
72406;SDS011;60396;47.550;18.828;2023-09-19T06:08:52;3.83;;;0.60;;
72406;SDS011;60396;47.550;18.828;2023-09-19T06:11:20;4.78;;;0.75;;
72406;SDS011;60396;47.550;18.828;2023-09-19T06:13:48;9.10;;;0.90;;
72406;SDS011;60396;47.550;18.828;2023-09-19T06:16:15;6.87;;;0.73;;
72406;SDS011;60396;47.550;18.828;2023-09-19T06:18:44;4.22;;;0.70;;
72406;SDS011;60396;47.550;18.828;2023-09-19T06:21:12;3.33;;;0.50;;
72406;SDS011;60396;47.550;18.828;2023-09-19T06:23:40;2.47;;;0.43;;
72406;SDS011;60396;47.550;18.828;2023-09-19T06:26:09;3.42;;;0.50;;
72406;SDS011;60396;47.550;18.828;2023-09-19T06:28:36;3.60;;;0.60;;
72406;SDS011;60396;47.550;18.828;2023-09-19T06:31:04;6.35;;;0.70;;
72406;SDS011;60396;47.550;18.828;2023-09-19T06:33:37;3.72;;;0.60;;
72406;SDS011;60396;47.550;18.828;2023-09-19T06:36:08;2.92;;;0.50;;
72406;SDS011;60396;47.550;18.828;2023-09-19T06:38:36;3.72;;;0.68;;
72406;SDS011;60396;47.550;18.828;2023-09-19T06:41:06;11.37;;;0.77;;
72406;SDS011;60396;47.550;18.828;2023-09-19T06:43:35;4.57;;;0.52;;
72406;SDS011;60396;47.550;18.828;2023-09-19T06:46:03;4.65;;;0.60;;
72406;SDS011;60396;47.550;18.828;2023-09-19T06:48:32;3.55;;;0.50;;
72406;SDS011;60396;47.550;18.828;2023-09-19T06:51:00;2.80;;;0.50;;
72406;SDS011;60396;47.550;18.828;2023-09-19T06:53:32;3.67;;;0.53;;
72406;SDS011;60396;47.550;18.828;2023-09-19T06:56:02;3.95;;;0.45;;
72406;SDS011;60396;47.550;18.828;2023-09-19T06:58:30;1.95;;;0.40;;
72406;SDS011;60396;47.550;18.828;2023-09-19T07:00:59;3.60;;;0.73;;
72406;SDS011;60396;47.550;18.828;2023-09-19T07:03:27;3.80;;;0.40;;
72406;SDS011;60396;47.550;18.828;2023-09-19T07:05:56;2.53;;;0.90;;
72406;SDS011;60396;47.550;18.828;2023-09-19T07:08:26;4.37;;;0.62;;
72406;SDS011;60396;47.550;18.828;2023-09-19T07:10:54;2.97;;;0.40;;
72406;SDS011;60396;47.550;18.828;2023-09-19T07:13:23;2.60;;;0.40;;
72406;SDS011;60396;47.550;18.828;2023-09-19T07:15:53;2.45;;;0.50;;
72406;SDS011;60396;47.550;18.828;2023-09-19T07:18:21;3.60;;;0.40;;
72406;SDS011;60396;47.550;18.828;2023-09-19T07:20:49;5.10;;;0.52;;
72406;SDS011;60396;47.550;18.828;2023-09-19T07:23:18;4.85;;;0.40;;
72406;SDS011;60396;47.550;18.828;2023-09-19T07:25:49;3.62;;;0.77;;
72406;SDS011;60396;47.550;18.828;2023-09-19T07:42:02;3.35;;;0.70;;
72406;SDS011;60396;47.550;18.828;2023-09-19T07:44:31;2.83;;;0.62;;
72406;SDS011;60396;47.550;18.828;2023-09-19T07:46:59;7.00;;;1.17;;
72406;SDS011;60396;47.550;18.828;2023-09-19T07:49:30;4.97;;;0.90;;
72406;SDS011;60396;47.550;18.828;2023-09-19T07:51:58;5.47;;;0.80;;
72406;SDS011;60396;47.550;18.828;2023-09-19T07:54:26;3.53;;;0.85;;
72406;SDS011;60396;47.550;18.828;2023-09-19T07:56:58;4.20;;;1.00;;
72406;SDS011;60396;47.550;18.828;2023-09-19T07:59:27;3.30;;;0.80;;
72406;SDS011;60396;47.550;18.828;2023-09-19T08:01:55;8.13;;;1.30;;
72406;SDS011;60396;47.550;18.828;2023-09-19T08:04:23;4.90;;;1.10;;
72406;SDS011;60396;47.550;18.828;2023-09-19T08:06:53;3.90;;;1.00;;
72406;SDS011;60396;47.550;18.828;2023-09-19T08:09:23;5.35;;;1.10;;
72406;SDS011;60396;47.550;18.828;2023-09-19T08:11:52;4.97;;;0.93;;
72406;SDS011;60396;47.550;18.828;2023-09-19T08:14:20;6.77;;;1.10;;
72406;SDS011;60396;47.550;18.828;2023-09-19T08:16:48;6.75;;;1.05;;
72406;SDS011;60396;47.550;18.828;2023-09-19T08:19:16;3.33;;;0.82;;
72406;SDS011;60396;47.550;18.828;2023-09-19T08:21:44;3.80;;;0.75;;
72406;SDS011;60396;47.550;18.828;2023-09-19T08:24:14;3.78;;;0.95;;
72406;SDS011;60396;47.550;18.828;2023-09-19T08:26:47;4.83;;;1.83;;
72406;SDS011;60396;47.550;18.828;2023-09-19T08:29:16;5.80;;;0.70;;
72406;SDS011;60396;47.550;18.828;2023-09-19T08:31:44;4.18;;;1.12;;
72406;SDS011;60396;47.550;18.828;2023-09-19T08:34:13;3.55;;;0.70;;
72406;SDS011;60396;47.550;18.828;2023-09-19T08:36:41;4.43;;;0.80;;
72406;SDS011;60396;47.550;18.828;2023-09-19T08:39:11;5.63;;;1.00;;
72406;SDS011;60396;47.550;18.828;2023-09-19T08:41:41;3.85;;;0.80;;
72406;SDS011;60396;47.550;18.828;2023-09-19T08:44:08;3.33;;;0.60;;
72406;SDS011;60396;47.550;18.828;2023-09-19T08:46:37;3.65;;;0.90;;
72406;SDS011;60396;47.550;18.828;2023-09-19T08:49:13;2.65;;;0.80;;
72406;SDS011;60396;47.550;18.828;2023-09-19T08:51:51;3.83;;;0.70;;
72406;SDS011;60396;47.550;18.828;2023-09-19T08:54:24;3.25;;;0.77;;
72406;SDS011;60396;47.550;18.828;2023-09-19T08:56:56;3.30;;;0.90;;
72406;SDS011;60396;47.550;18.828;2023-09-19T08:59:30;4.95;;;0.88;;
72406;SDS011;60396;47.550;18.828;2023-09-19T09:01:58;6.53;;;0.90;;
72406;SDS011;60396;47.550;18.828;2023-09-19T09:04:26;2.90;;;0.70;;
72406;SDS011;60396;47.550;18.828;2023-09-19T09:06:54;6.05;;;1.20;;
72406;SDS011;60396;47.550;18.828;2023-09-19T09:09:23;5.05;;;1.10;;
72406;SDS011;60396;47.550;18.828;2023-09-19T09:11:50;4.78;;;1.00;;
72406;SDS011;60396;47.550;18.828;2023-09-19T09:14:20;4.80;;;1.00;;
72406;SDS011;60396;47.550;18.828;2023-09-19T09:16:49;4.17;;;1.00;;
72406;SDS011;60396;47.550;18.828;2023-09-19T09:19:17;5.80;;;1.25;;
72406;SDS011;60396;47.550;18.828;2023-09-19T09:21:52;6.35;;;0.95;;
72406;SDS011;60396;47.550;18.828;2023-09-19T09:24:29;5.82;;;1.48;;
72406;SDS011;60396;47.550;18.828;2023-09-19T09:27:00;5.80;;;0.90;;
72406;SDS011;60396;47.550;18.828;2023-09-19T09:32:30;5.53;;;1.35;;
72406;SDS011;60396;47.550;18.828;2023-09-19T09:35:06;6.03;;;1.10;;
72406;SDS011;60396;47.550;18.828;2023-09-19T09:37:38;7.97;;;1.45;;
72406;SDS011;60396;47.550;18.828;2023-09-19T09:40:06;7.70;;;1.42;;
72406;SDS011;60396;47.550;18.828;2023-09-19T09:42:47;6.63;;;1.57;;
72406;SDS011;60396;47.550;18.828;2023-09-19T09:45:20;6.10;;;1.30;;
72406;SDS011;60396;47.550;18.828;2023-09-19T09:47:56;6.12;;;1.60;;
72406;SDS011;60396;47.550;18.828;2023-09-19T09:50:28;6.55;;;1.50;;
72406;SDS011;60396;47.550;18.828;2023-09-19T09:53:24;7.35;;;2.17;;
72406;SDS011;60396;47.550;18.828;2023-09-19T09:56:01;5.33;;;1.80;;
72406;SDS011;60396;47.550;18.828;2023-09-19T10:01:15;4.90;;;1.58;;
72406;SDS011;60396;47.550;18.828;2023-09-19T10:03:45;4.82;;;1.62;;
72406;SDS011;60396;47.550;18.828;2023-09-19T10:06:16;6.97;;;1.80;;
72406;SDS011;60396;47.550;18.828;2023-09-19T10:09:07;4.63;;;1.43;;
72406;SDS011;60396;47.550;18.828;2023-09-19T10:11:40;6.93;;;1.70;;
72406;SDS011;60396;47.550;18.828;2023-09-19T10:14:11;5.43;;;1.15;;
72406;SDS011;60396;47.550;18.828;2023-09-19T10:16:41;7.18;;;1.35;;
72406;SDS011;60396;47.550;18.828;2023-09-19T10:19:21;7.20;;;1.45;;
72406;SDS011;60396;47.550;18.828;2023-09-19T10:21:53;6.83;;;1.87;;
72406;SDS011;60396;47.550;18.828;2023-09-19T10:24:23;5.68;;;1.77;;
72406;SDS011;60396;47.550;18.828;2023-09-19T10:26:54;5.53;;;1.90;;
72406;SDS011;60396;47.550;18.828;2023-09-19T10:29:22;6.47;;;2.40;;
72406;SDS011;60396;47.550;18.828;2023-09-19T10:31:53;5.55;;;1.80;;
72406;SDS011;60396;47.550;18.828;2023-09-19T10:34:21;5.57;;;2.27;;
72406;SDS011;60396;47.550;18.828;2023-09-19T10:36:51;7.82;;;2.10;;
72406;SDS011;60396;47.550;18.828;2023-09-19T10:39:20;4.10;;;1.45;;
72406;SDS011;60396;47.550;18.828;2023-09-19T10:41:50;4.32;;;1.50;;
72406;SDS011;60396;47.550;18.828;2023-09-19T10:44:24;5.05;;;1.60;;
72406;SDS011;60396;47.550;18.828;2023-09-19T10:46:58;3.77;;;1.40;;
72406;SDS011;60396;47.550;18.828;2023-09-19T10:49:27;4.15;;;1.30;;
72406;SDS011;60396;47.550;18.828;2023-09-19T10:51:56;4.07;;;1.30;;
72406;SDS011;60396;47.550;18.828;2023-09-19T10:54:29;5.55;;;1.23;;
72406;SDS011;60396;47.550;18.828;2023-09-19T10:57:00;6.18;;;1.35;;
72406;SDS011;60396;47.550;18.828;2023-09-19T10:59:28;5.97;;;1.10;;
72406;SDS011;60396;47.550;18.828;2023-09-19T11:02:15;3.87;;;1.02;;
72406;SDS011;60396;47.550;18.828;2023-09-19T11:04:45;2.75;;;0.93;;
72406;SDS011;60396;47.550;18.828;2023-09-19T11:07:15;4.75;;;1.23;;
72406;SDS011;60396;47.550;18.828;2023-09-19T11:26:41;4.00;;;0.80;;
72406;SDS011;60396;47.550;18.828;2023-09-19T11:29:28;3.28;;;0.90;;
72406;SDS011;60396;47.550;18.828;2023-09-19T11:31:57;3.83;;;0.93;;
72406;SDS011;60396;47.550;18.828;2023-09-19T11:42:47;4.35;;;1.02;;
72406;SDS011;60396;47.550;18.828;2023-09-19T11:48:18;3.40;;;1.15;;
72406;SDS011;60396;47.550;18.828;2023-09-19T11:50:46;4.90;;;1.58;;
72406;SDS011;60396;47.550;18.828;2023-09-19T11:53:14;4.93;;;1.60;;
72406;SDS011;60396;47.550;18.828;2023-09-19T11:55:43;5.82;;;1.73;;
72406;SDS011;60396;47.550;18.828;2023-09-19T11:58:12;5.78;;;1.50;;
72406;SDS011;60396;47.550;18.828;2023-09-19T12:00:44;5.05;;;1.70;;
72406;SDS011;60396;47.550;18.828;2023-09-19T12:03:13;6.45;;;1.77;;
72406;SDS011;60396;47.550;18.828;2023-09-19T12:05:42;4.37;;;1.33;;
72406;SDS011;60396;47.550;18.828;2023-09-19T12:08:10;5.47;;;1.80;;
72406;SDS011;60396;47.550;18.828;2023-09-19T12:10:45;4.07;;;1.30;;
72406;SDS011;60396;47.550;18.828;2023-09-19T12:13:20;4.47;;;1.30;;
72406;SDS011;60396;47.550;18.828;2023-09-19T12:15:48;6.12;;;1.50;;
72406;SDS011;60396;47.550;18.828;2023-09-19T12:18:26;5.63;;;1.37;;
72406;SDS011;60396;47.550;18.828;2023-09-19T12:20:55;3.72;;;1.48;;
72406;SDS011;60396;47.550;18.828;2023-09-19T12:23:25;5.40;;;1.40;;
72406;SDS011;60396;47.550;18.828;2023-09-19T12:25:54;5.25;;;1.23;;
72406;SDS011;60396;47.550;18.828;2023-09-19T12:28:26;4.97;;;1.25;;
72406;SDS011;60396;47.550;18.828;2023-09-19T12:31:06;8.93;;;1.80;;
72406;SDS011;60396;47.550;18.828;2023-09-19T12:33:35;6.32;;;1.37;;
72406;SDS011;60396;47.550;18.828;2023-09-19T12:36:23;5.65;;;1.30;;
72406;SDS011;60396;47.550;18.828;2023-09-19T12:38:53;5.97;;;1.40;;
72406;SDS011;60396;47.550;18.828;2023-09-19T12:41:22;6.20;;;1.37;;
72406;SDS011;60396;47.550;18.828;2023-09-19T12:43:50;6.87;;;1.30;;
72406;SDS011;60396;47.550;18.828;2023-09-19T12:46:22;5.37;;;1.02;;
72406;SDS011;60396;47.550;18.828;2023-09-19T12:51:48;4.50;;;1.08;;
72406;SDS011;60396;47.550;18.828;2023-09-19T12:54:17;5.18;;;1.02;;
72406;SDS011;60396;47.550;18.828;2023-09-19T12:56:45;5.07;;;1.13;;
72406;SDS011;60396;47.550;18.828;2023-09-19T12:59:15;5.12;;;1.10;;
72406;SDS011;60396;47.550;18.828;2023-09-19T13:01:43;4.80;;;1.20;;
72406;SDS011;60396;47.550;18.828;2023-09-19T13:06:49;6.12;;;1.60;;
72406;SDS011;60396;47.550;18.828;2023-09-19T13:09:21;6.77;;;1.40;;
72406;SDS011;60396;47.550;18.828;2023-09-19T13:11:52;9.73;;;1.42;;
72406;SDS011;60396;47.550;18.828;2023-09-19T13:14:22;4.70;;;1.00;;
72406;SDS011;60396;47.550;18.828;2023-09-19T13:17:05;3.12;;;0.90;;
72406;SDS011;60396;47.550;18.828;2023-09-19T13:19:45;5.25;;;1.37;;
72406;SDS011;60396;47.550;18.828;2023-09-19T13:25:10;5.53;;;1.52;;
72406;SDS011;60396;47.550;18.828;2023-09-19T13:27:47;9.05;;;1.58;;
72406;SDS011;60396;47.550;18.828;2023-09-19T13:30:18;8.20;;;1.52;;
72406;SDS011;60396;47.550;18.828;2023-09-19T13:32:46;5.47;;;1.30;;
72406;SDS011;60396;47.550;18.828;2023-09-19T13:35:15;5.90;;;1.10;;
72406;SDS011;60396;47.550;18.828;2023-09-19T13:37:43;5.57;;;1.40;;
72406;SDS011;60396;47.550;18.828;2023-09-19T13:40:14;5.43;;;1.30;;
72406;SDS011;60396;47.550;18.828;2023-09-19T13:42:42;6.12;;;1.50;;
72406;SDS011;60396;47.550;18.828;2023-09-19T13:45:11;5.47;;;1.27;;
72406;SDS011;60396;47.550;18.828;2023-09-19T13:47:40;4.30;;;1.27;;
72406;SDS011;60396;47.550;18.828;2023-09-19T13:50:08;5.78;;;1.50;;
72406;SDS011;60396;47.550;18.828;2023-09-19T13:52:38;8.43;;;1.30;;
72406;SDS011;60396;47.550;18.828;2023-09-19T13:55:06;9.02;;;1.37;;
72406;SDS011;60396;47.550;18.828;2023-09-19T13:57:34;5.47;;;1.25;;
72406;SDS011;60396;47.550;18.828;2023-09-19T14:00:02;7.13;;;1.30;;
72406;SDS011;60396;47.550;18.828;2023-09-19T14:02:38;4.18;;;1.10;;
72406;SDS011;60396;47.550;18.828;2023-09-19T14:05:07;5.28;;;1.12;;
72406;SDS011;60396;47.550;18.828;2023-09-19T14:07:35;6.03;;;1.98;;
72406;SDS011;60396;47.550;18.828;2023-09-19T14:10:04;5.90;;;1.55;;
72406;SDS011;60396;47.550;18.828;2023-09-19T14:12:36;4.60;;;1.00;;
72406;SDS011;60396;47.550;18.828;2023-09-19T14:15:04;4.05;;;1.30;;
72406;SDS011;60396;47.550;18.828;2023-09-19T14:17:32;5.32;;;1.37;;
72406;SDS011;60396;47.550;18.828;2023-09-19T14:20:00;5.62;;;1.48;;
72406;SDS011;60396;47.550;18.828;2023-09-19T14:22:28;5.87;;;1.27;;
72406;SDS011;60396;47.550;18.828;2023-09-19T14:24:56;3.83;;;1.37;;
72406;SDS011;60396;47.550;18.828;2023-09-19T14:27:24;4.65;;;1.42;;
72406;SDS011;60396;47.550;18.828;2023-09-19T14:29:52;4.37;;;1.50;;
72406;SDS011;60396;47.550;18.828;2023-09-19T14:32:19;7.50;;;1.60;;
72406;SDS011;60396;47.550;18.828;2023-09-19T14:34:47;3.67;;;1.05;;
72406;SDS011;60396;47.550;18.828;2023-09-19T14:37:15;4.97;;;1.20;;
72406;SDS011;60396;47.550;18.828;2023-09-19T14:39:48;5.93;;;1.20;;
72406;SDS011;60396;47.550;18.828;2023-09-19T14:42:16;4.95;;;1.40;;
72406;SDS011;60396;47.550;18.828;2023-09-19T14:44:45;4.68;;;1.42;;
72406;SDS011;60396;47.550;18.828;2023-09-19T14:47:15;5.20;;;1.42;;
72406;SDS011;60396;47.550;18.828;2023-09-19T14:49:44;3.53;;;1.10;;
72406;SDS011;60396;47.550;18.828;2023-09-19T14:52:12;4.85;;;1.35;;
72406;SDS011;60396;47.550;18.828;2023-09-19T14:54:43;4.30;;;1.40;;
72406;SDS011;60396;47.550;18.828;2023-09-19T14:57:11;4.65;;;1.08;;
72406;SDS011;60396;47.550;18.828;2023-09-19T14:59:41;4.57;;;1.15;;
72406;SDS011;60396;47.550;18.828;2023-09-19T15:02:09;4.63;;;1.40;;
72406;SDS011;60396;47.550;18.828;2023-09-19T15:04:37;5.22;;;1.35;;
72406;SDS011;60396;47.550;18.828;2023-09-19T15:07:09;4.93;;;1.00;;
72406;SDS011;60396;47.550;18.828;2023-09-19T15:09:37;5.12;;;1.33;;
72406;SDS011;60396;47.550;18.828;2023-09-19T15:12:05;5.07;;;1.42;;
72406;SDS011;60396;47.550;18.828;2023-09-19T15:14:33;5.50;;;1.50;;
72406;SDS011;60396;47.550;18.828;2023-09-19T15:17:01;5.78;;;1.37;;
72406;SDS011;60396;47.550;18.828;2023-09-19T15:19:32;6.25;;;1.15;;
72406;SDS011;60396;47.550;18.828;2023-09-19T15:22:00;5.75;;;1.45;;
72406;SDS011;60396;47.550;18.828;2023-09-19T15:24:29;6.95;;;1.20;;
72406;SDS011;60396;47.550;18.828;2023-09-19T15:26:57;5.77;;;1.20;;
72406;SDS011;60396;47.550;18.828;2023-09-19T15:29:25;4.35;;;1.42;;
72406;SDS011;60396;47.550;18.828;2023-09-19T15:31:54;4.97;;;1.23;;
72406;SDS011;60396;47.550;18.828;2023-09-19T15:34:24;5.60;;;1.20;;
72406;SDS011;60396;47.550;18.828;2023-09-19T15:36:53;4.07;;;1.08;;
72406;SDS011;60396;47.550;18.828;2023-09-19T15:39:20;4.43;;;1.37;;
72406;SDS011;60396;47.550;18.828;2023-09-19T15:41:49;4.47;;;1.30;;
72406;SDS011;60396;47.550;18.828;2023-09-19T15:44:18;3.78;;;1.23;;
72406;SDS011;60396;47.550;18.828;2023-09-19T15:46:47;2.95;;;1.10;;
72406;SDS011;60396;47.550;18.828;2023-09-19T15:49:19;6.00;;;1.40;;
72406;SDS011;60396;47.550;18.828;2023-09-19T15:51:47;4.80;;;1.40;;
72406;SDS011;60396;47.550;18.828;2023-09-19T15:54:15;5.10;;;1.40;;
72406;SDS011;60396;47.550;18.828;2023-09-19T15:56:44;5.68;;;1.10;;
72406;SDS011;60396;47.550;18.828;2023-09-19T15:59:13;7.68;;;1.52;;